Prairie Center, Illinois
Current Conditions -  °F | °C
As of 10:35 AM on Saturday 22 Nov 2014 (Local Time) from KVYS Reporting Station
Overcast Overcast  
Wind Chill:   Ceiling: 1500
Heat Index:   Visibility: 7mi
Dew Point:   Wind: 14mph
Humidity: 81%   Direction: 190°S
Pressure: 29.97"   Gusts: NA
Location:  41.4349°N, 88.8687°W
Report Text: KVYS 221635Z AUTO 19012KT 7SM OVC015 08/05 A2997 RMK AO2 T00800050
Loading
Personal Weather Stations






























Interactive Weather Map New forecast layout! Learn more

10-Day Weather Forecast

Advertisements
Track Severe Weather on mobile